createdAt,value
2017-11-19T00:01:06.430Z,2.60
2017-11-19T00:03:33.983Z,1.90
2017-11-19T00:06:02.470Z,3.30
2017-11-19T00:08:30.037Z,2.55
2017-11-19T00:10:57.547Z,2.45
2017-11-19T00:13:25.076Z,2.22
2017-11-19T00:15:52.683Z,2.87
2017-11-19T00:18:20.191Z,1.85
2017-11-19T00:20:47.710Z,2.50
2017-11-19T00:23:15.251Z,2.12
2017-11-19T00:25:42.766Z,2.80
2017-11-19T00:28:10.289Z,2.67
2017-11-19T00:30:37.847Z,2.58
2017-11-19T00:33:05.408Z,2.40
2017-11-19T00:35:32.967Z,2.42
2017-11-19T00:38:00.863Z,2.17
2017-11-19T00:40:31.567Z,2.97
2017-11-19T00:42:59.091Z,2.80
2017-11-19T00:45:26.631Z,2.75
2017-11-19T00:47:54.465Z,2.87
2017-11-19T00:50:22.343Z,3.55
2017-11-19T00:52:49.894Z,3.35
2017-11-19T00:55:17.629Z,3.37
2017-11-19T00:57:45.140Z,3.55
2017-11-19T01:00:12.955Z,2.90
2017-11-19T01:02:40.459Z,3.03
2017-11-19T01:05:19.753Z,3.20
2017-11-19T01:07:47.443Z,2.53
2017-11-19T01:10:15.084Z,2.67
2017-11-19T01:12:42.681Z,3.05
2017-11-19T01:15:10.187Z,2.97
2017-11-19T01:17:39.800Z,2.70
2017-11-19T01:20:08.311Z,3.10
2017-11-19T01:22:35.924Z,3.00
2017-11-19T01:25:03.427Z,2.25
2017-11-19T01:27:31.139Z,2.42
2017-11-19T01:29:58.643Z,2.37
2017-11-19T01:32:26.998Z,1.95
2017-11-19T01:34:54.543Z,2.03
2017-11-19T01:37:22.705Z,3.15
2017-11-19T01:39:50.232Z,1.95
2017-11-19T01:42:17.953Z,2.45
2017-11-19T01:44:45.511Z,1.85
2017-11-19T01:47:13.020Z,2.45
2017-11-19T01:49:40.834Z,1.58
2017-11-19T01:52:08.398Z,2.50
2017-11-19T01:54:35.954Z,1.40
2017-11-19T01:57:03.716Z,1.48
2017-11-19T01:59:31.224Z,1.35
2017-11-19T02:01:58.739Z,1.58
2017-11-19T02:04:26.284Z,1.75
2017-11-19T02:06:53.787Z,1.23
2017-11-19T02:09:21.296Z,1.45
2017-11-19T02:11:48.997Z,0.98
2017-11-19T02:14:16.535Z,1.15
2017-11-19T02:16:44.087Z,0.90
2017-11-19T02:19:11.647Z,0.90
2017-11-19T02:21:39.218Z,0.85
2017-11-19T02:24:06.744Z,0.70
2017-11-19T02:26:34.438Z,1.40
2017-11-19T02:29:02.004Z,0.85
2017-11-19T02:31:29.545Z,0.65
2017-11-19T02:33:57.309Z,0.75
2017-11-19T02:36:24.824Z,0.82
2017-11-19T02:38:52.355Z,0.50
2017-11-19T02:41:20.064Z,0.90
2017-11-19T02:43:47.585Z,0.65
2017-11-19T02:46:15.100Z,0.50
2017-11-19T02:48:42.639Z,0.50
2017-11-19T02:51:10.144Z,0.55
2017-11-19T02:53:37.694Z,0.80
2017-11-19T02:56:05.544Z,0.60
2017-11-19T02:58:33.105Z,0.60
2017-11-19T03:01:00.636Z,0.80
2017-11-19T03:03:28.209Z,0.60
2017-11-19T03:05:55.823Z,0.80
2017-11-19T03:08:23.341Z,1.00
2017-11-19T03:10:51.076Z,0.50
2017-11-19T03:13:18.599Z,0.50
2017-11-19T03:15:46.228Z,0.98
2017-11-19T03:18:13.960Z,0.60
2017-11-19T03:20:41.483Z,0.50
2017-11-19T03:23:09.004Z,0.50
2017-11-19T03:25:36.562Z,0.80
2017-11-19T03:28:04.080Z,0.60
2017-11-19T03:30:31.593Z,0.60
2017-11-19T03:32:59.357Z,0.60
2017-11-19T03:35:26.876Z,0.60
2017-11-19T03:37:54.387Z,0.70
2017-11-19T03:40:21.929Z,0.70
2017-11-19T03:42:49.475Z,0.60
2017-11-19T03:45:16.985Z,0.60
2017-11-19T03:47:44.593Z,0.45
2017-11-19T03:50:12.151Z,0.50
2017-11-19T03:52:39.843Z,0.50
2017-11-19T03:55:07.484Z,0.50
2017-11-19T03:57:35.038Z,0.68
2017-11-19T04:00:02.601Z,0.50
2017-11-19T04:02:30.356Z,0.70
2017-11-19T04:04:57.875Z,0.45
2017-11-19T04:07:25.392Z,0.50
2017-11-19T04:09:52.953Z,0.60
2017-11-19T04:12:20.490Z,0.70
2017-11-19T04:14:47.996Z,0.65
2017-11-19T04:17:15.789Z,0.75
2017-11-19T04:19:43.296Z,0.40
2017-11-19T04:22:10.852Z,0.40
2017-11-19T04:24:38.390Z,0.60
2017-11-19T04:27:05.899Z,0.47
2017-11-19T04:29:33.413Z,0.57
2017-11-19T04:32:01.148Z,0.47
2017-11-19T04:34:28.664Z,0.55
2017-11-19T04:36:56.182Z,0.60
2017-11-19T04:39:24.050Z,0.50
2017-11-19T04:41:51.611Z,0.55
2017-11-19T04:44:19.186Z,0.45
2017-11-19T04:46:46.764Z,0.50
2017-11-19T04:49:14.271Z,0.50
2017-11-19T04:51:41.796Z,0.75
2017-11-19T04:54:09.711Z,0.45
2017-11-19T04:56:37.221Z,0.43
2017-11-19T04:59:04.748Z,0.80
2017-11-19T05:01:32.288Z,0.55
2017-11-19T05:03:59.807Z,0.60
2017-11-19T05:06:27.314Z,0.60
2017-11-19T05:08:55.070Z,0.50
2017-11-19T05:11:22.627Z,0.50
2017-11-19T05:13:50.185Z,0.73
2017-11-19T05:16:17.254Z,0.75
2017-11-19T05:18:44.760Z,0.50
2017-11-19T05:21:12.275Z,0.82
2017-11-19T05:23:39.851Z,0.80
2017-11-19T05:26:07.366Z,0.40
2017-11-19T05:28:34.875Z,0.60
2017-11-19T05:31:02.791Z,0.50
2017-11-19T05:33:30.297Z,0.60
2017-11-19T05:35:57.812Z,0.50
2017-11-19T05:38:25.353Z,0.70
2017-11-19T05:40:52.864Z,0.50
2017-11-19T05:43:20.380Z,0.50
2017-11-19T05:45:47.919Z,0.62
2017-11-19T05:48:16.148Z,0.60
2017-11-19T05:50:43.680Z,0.40
2017-11-19T05:53:12.102Z,0.70
2017-11-19T05:55:39.620Z,0.57
2017-11-19T05:58:07.130Z,1.05
2017-11-19T06:00:34.934Z,0.80
2017-11-19T06:03:02.439Z,0.62
2017-11-19T06:05:29.966Z,1.08
2017-11-19T06:07:57.714Z,1.20
2017-11-19T06:10:25.226Z,1.23
2017-11-19T06:12:52.742Z,1.20
2017-11-19T06:15:20.467Z,1.80
2017-11-19T06:17:47.983Z,2.25
2017-11-19T06:20:15.492Z,1.60
2017-11-19T06:22:43.137Z,1.55
2017-11-19T06:25:10.645Z,1.92
2017-11-19T06:27:38.189Z,1.95
2017-11-19T06:30:05.740Z,2.45
2017-11-19T06:32:33.249Z,2.05
2017-11-19T06:35:00.756Z,2.60
2017-11-19T06:37:28.501Z,2.75
2017-11-19T06:39:56.011Z,2.50
2017-11-19T06:42:23.526Z,2.58
2017-11-19T06:44:51.327Z,2.80
2017-11-19T06:47:18.847Z,4.28
2017-11-19T06:49:46.359Z,3.83
2017-11-19T06:52:13.923Z,3.80
2017-11-19T06:54:41.432Z,3.45
2017-11-19T06:57:08.952Z,3.40
2017-11-19T06:59:36.555Z,3.08
2017-11-19T07:02:04.060Z,2.55
2017-11-19T07:04:31.568Z,2.10
2017-11-19T07:06:59.148Z,2.72
2017-11-19T07:09:26.699Z,2.67
2017-11-19T07:11:54.259Z,1.70
2017-11-19T07:14:22.220Z,2.75
2017-11-19T07:16:49.778Z,2.50
2017-11-19T07:19:17.298Z,3.22
2017-11-19T07:21:44.867Z,3.30
2017-11-19T07:24:12.379Z,2.83
2017-11-19T07:26:39.896Z,2.70
2017-11-19T07:29:07.512Z,4.05
2017-11-19T07:31:34.337Z,3.97
2017-11-19T07:34:01.877Z,5.22
2017-11-19T07:36:29.527Z,4.25
2017-11-19T07:38:57.198Z,3.95
2017-11-19T07:41:24.704Z,4.20
2017-11-19T07:43:52.518Z,3.65
2017-11-19T07:46:20.028Z,4.10
2017-11-19T07:48:47.535Z,3.15
2017-11-19T07:51:15.308Z,3.85
2017-11-19T07:53:42.879Z,4.37
2017-11-19T07:56:10.388Z,3.45
2017-11-19T07:58:37.974Z,4.43
2017-11-19T08:01:06.107Z,4.35
2017-11-19T08:03:33.618Z,3.80
2017-11-19T08:06:01.197Z,3.50
2017-11-19T08:08:28.722Z,4.30
2017-11-19T08:10:56.283Z,4.28
2017-11-19T08:13:23.999Z,3.10
2017-11-19T08:15:51.503Z,2.90
2017-11-19T08:18:19.065Z,3.12
2017-11-19T08:20:46.638Z,4.15
2017-11-19T08:23:14.182Z,3.40
2017-11-19T08:25:41.689Z,3.55
2017-11-19T08:28:09.245Z,4.50
2017-11-19T08:30:36.771Z,3.70
2017-11-19T08:33:04.315Z,3.20
2017-11-19T08:35:31.921Z,5.57
2017-11-19T08:37:59.470Z,3.37
2017-11-19T08:40:26.995Z,3.45
2017-11-19T08:42:54.540Z,2.80
2017-11-19T08:45:22.049Z,2.80
2017-11-19T08:47:49.561Z,2.65
2017-11-19T08:50:17.330Z,2.65
2017-11-19T08:52:44.885Z,2.55
2017-11-19T08:55:12.399Z,3.28
2017-11-19T08:57:40.124Z,3.87
2017-11-19T09:00:07.687Z,3.47
2017-11-19T09:02:35.228Z,2.30
2017-11-19T09:05:02.975Z,3.40
2017-11-19T09:07:30.493Z,3.25
2017-11-19T09:09:58.036Z,3.22
2017-11-19T09:12:25.955Z,3.58
2017-11-19T09:14:53.628Z,3.15
2017-11-19T09:17:21.195Z,3.35
2017-11-19T09:19:48.771Z,3.15
2017-11-19T09:22:16.283Z,2.45
2017-11-19T09:24:43.977Z,1.92
2017-11-19T09:27:11.543Z,1.75
2017-11-19T09:29:39.138Z,2.00
2017-11-19T09:32:06.859Z,1.10
2017-11-19T09:34:34.926Z,1.70
2017-11-19T09:37:02.440Z,1.70
2017-11-19T09:39:30.014Z,1.45
2017-11-19T09:41:57.611Z,1.90
2017-11-19T09:44:25.181Z,2.20
2017-11-19T09:46:52.730Z,2.15
2017-11-19T09:49:20.496Z,2.00
2017-11-19T09:51:48.163Z,2.60
2017-11-19T09:54:15.851Z,3.22
2017-11-19T09:56:44.063Z,3.03
2017-11-19T09:59:11.591Z,3.40
2017-11-19T10:01:39.127Z,3.70
2017-11-19T10:04:06.872Z,4.25
2017-11-19T10:06:34.400Z,4.05
2017-11-19T10:09:02.121Z,5.90
2017-11-19T10:11:29.855Z,3.83
2017-11-19T10:13:57.475Z,5.03
2017-11-19T10:16:25.039Z,4.50
2017-11-19T10:18:52.862Z,4.32
2017-11-19T10:21:20.602Z,3.60
2017-11-19T10:23:48.365Z,4.07
2017-11-19T10:26:16.194Z,2.90
2017-11-19T10:28:44.813Z,2.87
2017-11-19T10:31:12.684Z,3.03
2017-11-19T10:33:40.560Z,3.03
2017-11-19T10:36:08.590Z,2.60
2017-11-19T10:38:36.488Z,2.27
2017-11-19T10:41:04.453Z,3.30
2017-11-19T10:43:32.376Z,2.80
2017-11-19T10:46:00.068Z,2.30
2017-11-19T10:48:27.958Z,2.53
2017-11-19T10:50:55.582Z,2.20
2017-11-19T10:53:23.173Z,2.70
2017-11-19T10:55:51.021Z,2.70
2017-11-19T10:58:18.544Z,3.03
2017-11-19T11:00:46.154Z,2.40
2017-11-19T11:03:14.124Z,2.70
2017-11-19T11:05:41.890Z,2.80
2017-11-19T11:08:09.419Z,2.83
2017-11-19T11:10:37.187Z,2.23
2017-11-19T11:13:04.704Z,2.33
2017-11-19T11:15:32.429Z,2.53
2017-11-19T11:18:01.106Z,2.70
2017-11-19T11:20:28.675Z,2.50
2017-11-19T11:22:56.342Z,2.03
2017-11-19T11:25:24.423Z,2.70
2017-11-19T11:27:52.170Z,2.53
2017-11-19T11:30:19.943Z,2.53
2017-11-19T11:32:47.596Z,2.13
2017-11-19T11:35:15.113Z,2.00
2017-11-19T11:37:42.663Z,1.90
2017-11-19T11:40:10.473Z,2.07
2017-11-19T11:42:38.354Z,1.50
2017-11-19T11:45:06.109Z,3.37
2017-11-19T11:47:33.947Z,2.27
2017-11-19T11:50:01.740Z,1.90
2017-11-19T11:52:29.405Z,2.43
2017-11-19T11:54:57.185Z,2.70
2017-11-19T11:57:25.245Z,2.57
2017-11-19T11:59:53.101Z,2.30
2017-11-19T12:02:21.088Z,2.40
2017-11-19T12:04:48.843Z,3.10
2017-11-19T12:07:16.420Z,3.10
2017-11-19T12:09:44.877Z,2.67
2017-11-19T12:12:12.843Z,2.30
2017-11-19T12:14:40.712Z,2.50
2017-11-19T12:17:09.227Z,4.10
2017-11-19T12:19:39.212Z,2.20
2017-11-19T12:22:07.072Z,2.20
2017-11-19T12:24:37.008Z,2.00
2017-11-19T12:27:05.160Z,3.00
2017-11-19T12:29:33.650Z,2.85
2017-11-19T12:32:07.112Z,2.05
2017-11-19T12:34:38.231Z,2.33
2017-11-19T12:37:06.176Z,2.00
2017-11-19T12:39:34.124Z,3.15
2017-11-19T12:42:02.055Z,2.03
2017-11-19T12:44:30.064Z,2.40
2017-11-19T12:49:33.288Z,2.20
2017-11-19T12:52:03.262Z,2.12
2017-11-19T12:54:31.813Z,1.95
2017-11-19T12:57:06.083Z,2.03
2017-11-19T12:59:34.133Z,3.45
2017-11-19T13:02:01.921Z,2.45
2017-11-19T13:04:29.889Z,4.85
2017-11-19T13:06:57.663Z,2.53
2017-11-19T13:09:25.720Z,2.65
2017-11-19T13:11:54.309Z,1.50
2017-11-19T13:14:22.271Z,3.12
2017-11-19T13:16:50.039Z,2.75
2017-11-19T13:19:18.473Z,1.48
2017-11-19T13:21:46.073Z,3.17
2017-11-19T13:24:13.851Z,1.62
2017-11-19T13:26:41.602Z,2.17
2017-11-19T13:29:09.263Z,2.75
2017-11-19T13:31:36.937Z,1.90
2017-11-19T13:34:04.790Z,1.60
2017-11-19T13:36:32.361Z,2.22
2017-11-19T13:38:59.910Z,2.78
2017-11-19T13:41:27.980Z,2.00
2017-11-19T13:43:55.519Z,2.15
2017-11-19T13:46:23.207Z,2.75
2017-11-19T13:48:50.918Z,1.90
2017-11-19T13:51:18.627Z,1.77
2017-11-19T13:53:46.223Z,2.62
2017-11-19T13:56:14.156Z,2.33
2017-11-19T13:58:41.816Z,1.73
2017-11-19T14:01:09.660Z,1.90
2017-11-19T14:03:37.656Z,2.30
2017-11-19T14:06:05.415Z,2.55
2017-11-19T14:08:33.079Z,2.45
2017-11-19T14:11:01.762Z,2.37
2017-11-19T14:13:29.539Z,1.75
2017-11-19T14:15:57.360Z,2.00
2017-11-19T14:18:25.467Z,1.80
2017-11-19T14:20:53.330Z,2.90
2017-11-19T14:23:21.089Z,2.00
2017-11-19T14:25:48.834Z,2.37
2017-11-19T14:28:16.592Z,1.73
2017-11-19T14:30:44.390Z,1.67
2017-11-19T14:33:12.140Z,2.45
2017-11-19T14:35:39.811Z,1.35
2017-11-19T14:38:07.547Z,2.42
2017-11-19T14:40:35.646Z,2.45
2017-11-19T14:43:03.317Z,1.55
2017-11-19T14:45:31.079Z,2.50
2017-11-19T14:47:59.023Z,2.20
2017-11-19T14:50:26.804Z,2.15
2017-11-19T14:52:54.568Z,2.10
2017-11-19T14:55:22.846Z,2.60
2017-11-19T14:57:50.606Z,2.45
2017-11-19T15:00:18.472Z,3.83
2017-11-19T15:02:46.358Z,2.83
2017-11-19T15:05:15.128Z,2.40
2017-11-19T15:07:42.891Z,2.67
2017-11-19T15:10:10.859Z,2.78
2017-11-19T15:12:38.631Z,2.70
2017-11-19T15:15:07.115Z,2.55
2017-11-19T15:17:34.980Z,3.70
2017-11-19T15:20:02.873Z,2.65
2017-11-19T15:22:30.805Z,2.30
2017-11-19T15:24:58.951Z,3.50
2017-11-19T15:27:26.844Z,3.30
2017-11-19T15:29:54.617Z,2.40
2017-11-19T15:32:22.427Z,2.58
2017-11-19T15:34:50.342Z,2.97
2017-11-19T15:37:18.117Z,2.97
2017-11-19T15:39:46.177Z,3.12
2017-11-19T15:42:13.789Z,2.60
2017-11-19T15:44:41.531Z,2.10
2017-11-19T15:47:09.459Z,3.33
2017-11-19T15:49:37.333Z,3.05
2017-11-19T15:52:05.118Z,1.87
2017-11-19T15:54:32.969Z,2.40
2017-11-19T15:57:01.649Z,3.20
2017-11-19T15:59:29.413Z,3.12
2017-11-19T16:01:57.382Z,3.37
2017-11-19T16:04:25.147Z,2.60
2017-11-19T16:06:53.832Z,3.10
2017-11-19T16:09:22.004Z,2.80
2017-11-19T16:11:50.199Z,3.22
2017-11-19T16:14:18.863Z,3.80
2017-11-19T16:16:46.627Z,4.18
2017-11-19T16:19:14.203Z,3.40
2017-11-19T16:21:41.820Z,3.10
2017-11-19T16:24:10.225Z,2.80
2017-11-19T16:26:38.502Z,2.72
2017-11-19T16:29:06.371Z,2.50
2017-11-19T16:31:34.794Z,2.62
2017-11-19T16:34:03.968Z,2.55
2017-11-19T16:36:31.809Z,3.10
2017-11-19T16:38:59.881Z,3.10
2017-11-19T16:41:27.715Z,2.87
2017-11-19T16:43:55.614Z,3.12
2017-11-19T16:46:25.743Z,2.90
2017-11-19T16:48:53.496Z,3.60
2017-11-19T16:51:21.288Z,4.62
2017-11-19T16:53:50.458Z,5.05
2017-11-19T16:56:18.238Z,6.40
2017-11-19T16:58:46.004Z,3.22
2017-11-19T17:01:14.073Z,3.25
2017-11-19T17:03:42.026Z,2.70
2017-11-19T17:06:10.916Z,4.20
2017-11-19T17:08:39.001Z,2.72
2017-11-19T17:11:07.239Z,3.15
2017-11-19T17:13:35.036Z,2.75
2017-11-19T17:16:03.013Z,3.37
2017-11-19T17:18:31.068Z,2.75
2017-11-19T17:20:59.057Z,3.40
2017-11-19T17:23:27.329Z,3.15
2017-11-19T17:25:55.282Z,3.40
2017-11-19T17:28:23.557Z,2.97
2017-11-19T17:30:51.525Z,2.47
2017-11-19T17:33:19.493Z,3.05
2017-11-19T17:35:53.105Z,3.08
2017-11-19T17:38:20.892Z,3.42
2017-11-19T17:40:48.642Z,3.78
2017-11-19T17:43:17.001Z,3.17
2017-11-19T17:45:45.501Z,3.62
2017-11-19T17:48:13.254Z,2.90
2017-11-19T17:50:41.077Z,3.45
2017-11-19T17:53:08.760Z,3.25
2017-11-19T17:55:36.553Z,4.00
2017-11-19T17:58:04.505Z,3.30
2017-11-19T18:00:32.285Z,3.80
2017-11-19T18:03:00.053Z,3.25
2017-11-19T18:05:28.378Z,3.15
2017-11-19T18:07:56.156Z,3.83
2017-11-19T18:10:25.389Z,2.70
2017-11-19T18:12:53.341Z,2.17
2017-11-19T18:15:21.207Z,2.65
2017-11-19T18:17:49.382Z,2.60
2017-11-19T18:20:17.369Z,2.67
2017-11-19T18:22:45.833Z,3.10
2017-11-19T18:25:13.838Z,3.15
2017-11-19T18:27:41.878Z,3.50
2017-11-19T18:30:09.839Z,3.90
2017-11-19T18:32:37.819Z,2.65
2017-11-19T18:35:06.902Z,3.55
2017-11-19T18:37:34.769Z,3.83
2017-11-19T18:40:02.748Z,2.42
2017-11-19T18:42:31.232Z,3.55
2017-11-19T18:45:01.508Z,3.83
2017-11-19T18:47:29.614Z,4.18
2017-11-19T18:49:57.582Z,3.95
2017-11-19T18:52:25.551Z,4.10
2017-11-19T18:54:53.418Z,6.00
2017-11-19T18:57:22.474Z,4.35
2017-11-19T18:59:50.291Z,5.20
2017-11-19T19:02:18.143Z,2.92
2017-11-19T19:04:46.110Z,3.17
2017-11-19T19:07:15.811Z,3.25
2017-11-19T19:09:44.302Z,2.40
2017-11-19T19:12:12.274Z,2.95
2017-11-19T19:14:40.255Z,2.72
2017-11-19T19:17:08.016Z,3.03
2017-11-19T19:19:35.766Z,2.62
2017-11-19T19:22:03.531Z,2.92
2017-11-19T19:24:31.199Z,2.20
2017-11-19T19:26:58.955Z,4.75
2017-11-19T19:29:27.030Z,3.08
2017-11-19T19:31:55.305Z,4.28
2017-11-19T19:34:23.156Z,4.28
2017-11-19T19:36:50.988Z,2.70
2017-11-19T19:39:18.682Z,2.25
2017-11-19T19:41:46.474Z,2.30
2017-11-19T19:44:14.840Z,2.50
2017-11-19T19:46:42.756Z,2.75
2017-11-19T19:49:11.290Z,2.22
2017-11-19T19:51:38.953Z,2.70
2017-11-19T19:54:06.718Z,1.80
2017-11-19T19:56:34.786Z,2.78
2017-11-19T19:59:02.564Z,2.40
2017-11-19T20:01:30.312Z,2.20
2017-11-19T20:03:58.206Z,2.60
2017-11-19T20:06:25.940Z,2.60
2017-11-19T20:08:53.570Z,2.47
2017-11-19T20:11:21.376Z,2.40
2017-11-19T20:13:49.662Z,2.60
2017-11-19T20:16:17.408Z,2.72
2017-11-19T20:18:45.735Z,2.20
2017-11-19T20:21:13.961Z,3.05
2017-11-19T20:23:42.954Z,3.00
2017-11-19T20:26:11.030Z,3.58
2017-11-19T20:28:38.910Z,1.80
2017-11-19T20:31:06.758Z,2.65
2017-11-19T20:33:34.633Z,3.22
2017-11-19T20:36:03.025Z,2.67
2017-11-19T20:38:30.868Z,2.85
2017-11-19T20:40:58.942Z,3.17
2017-11-19T20:43:26.708Z,3.15
2017-11-19T20:45:54.455Z,2.60
2017-11-19T20:48:22.626Z,2.78
2017-11-19T20:50:50.271Z,2.70
2017-11-19T20:53:18.169Z,2.60
2017-11-19T20:55:45.953Z,3.03
2017-11-19T20:58:13.699Z,4.22
2017-11-19T21:00:41.443Z,2.72
2017-11-19T21:03:09.227Z,2.95
2017-11-19T21:05:37.092Z,1.35
2017-11-19T21:08:04.883Z,2.90
2017-11-19T21:10:32.739Z,2.85
2017-11-19T21:13:00.589Z,2.65
2017-11-19T21:15:28.455Z,2.95
2017-11-19T21:17:56.231Z,2.58
2017-11-19T21:20:24.187Z,2.60
2017-11-19T21:22:51.953Z,2.50
2017-11-19T21:25:19.716Z,4.60
2017-11-19T21:27:47.473Z,2.95
2017-11-19T21:30:15.141Z,3.08
2017-11-19T21:32:42.727Z,3.03
2017-11-19T21:35:10.467Z,3.22
2017-11-19T21:37:38.227Z,3.12
2017-11-19T21:40:06.201Z,3.53
2017-11-19T21:42:34.071Z,2.92
2017-11-19T21:45:01.718Z,4.25
2017-11-19T21:47:29.572Z,2.90
2017-11-19T21:49:57.085Z,2.62
2017-11-19T21:52:24.669Z,3.62
2017-11-19T21:54:52.677Z,2.65
2017-11-19T21:57:20.465Z,3.25
2017-11-19T21:59:48.103Z,3.30
2017-11-19T22:02:15.695Z,2.60
2017-11-19T22:04:43.221Z,2.72
2017-11-19T22:07:10.825Z,3.58
2017-11-19T22:09:38.663Z,3.72
2017-11-19T22:12:06.325Z,2.97
2017-11-19T22:14:33.859Z,3.40
2017-11-19T22:17:01.767Z,2.75
2017-11-19T22:19:29.294Z,3.45
2017-11-19T22:21:58.652Z,2.87
2017-11-19T22:24:26.359Z,3.45
2017-11-19T22:26:53.916Z,2.87
2017-11-19T22:29:21.428Z,2.65
2017-11-19T22:31:48.995Z,2.08
2017-11-19T22:34:16.506Z,2.35
2017-11-19T22:36:44.049Z,2.80
2017-11-19T22:39:11.744Z,2.37
2017-11-19T22:41:39.283Z,1.62
2017-11-19T22:44:07.137Z,2.28
2017-11-19T22:46:35.002Z,2.25
2017-11-19T22:49:02.589Z,3.12
2017-11-19T22:51:30.242Z,1.92
2017-11-19T22:53:58.294Z,2.08
2017-11-19T22:56:25.854Z,2.50
2017-11-19T22:58:53.426Z,2.28
2017-11-19T23:01:21.147Z,1.48
2017-11-19T23:03:48.659Z,1.75
2017-11-19T23:06:16.199Z,2.25
2017-11-19T23:08:43.775Z,2.22
2017-11-19T23:11:11.318Z,2.05
2017-11-19T23:13:38.888Z,2.05
2017-11-19T23:16:06.615Z,2.15
2017-11-19T23:18:34.122Z,2.17
2017-11-19T23:21:01.637Z,2.15
2017-11-19T23:23:29.218Z,1.60
2017-11-19T23:25:56.776Z,2.17
2017-11-19T23:28:24.286Z,2.20
2017-11-19T23:30:52.195Z,1.60
2017-11-19T23:33:19.754Z,2.62
2017-11-19T23:35:47.268Z,1.80
2017-11-19T23:38:14.871Z,2.60
2017-11-19T23:40:42.738Z,2.75
2017-11-19T23:43:10.242Z,2.62
2017-11-19T23:45:38.040Z,2.10
2017-11-19T23:48:05.543Z,2.58
2017-11-19T23:50:33.077Z,2.15
2017-11-19T23:53:00.648Z,2.08
2017-11-19T23:55:28.207Z,2.20
2017-11-19T23:57:55.727Z,2.75
